sensor_id;sensor_type;location;lat;lon;timestamp;temperature;humidity
52016;DHT22;38032;53.326;6.472;2023-04-01T00:00:51;11.00;99.90
52016;DHT22;38032;53.326;6.472;2023-04-01T00:03:18;11.00;99.90
52016;DHT22;38032;53.326;6.472;2023-04-01T00:05:45;11.00;99.90
52016;DHT22;38032;53.326;6.472;2023-04-01T00:08:11;11.00;99.90
52016;DHT22;38032;53.326;6.472;2023-04-01T00:10:37;10.90;99.90
52016;DHT22;38032;53.326;6.472;2023-04-01T00:13:03;10.90;99.90
52016;DHT22;38032;53.326;6.472;2023-04-01T00:15:29;10.90;99.90
52016;DHT22;38032;53.326;6.472;2023-04-01T00:17:55;10.90;99.90
52016;DHT22;38032;53.326;6.472;2023-04-01T00:20:21;10.90;99.90
52016;DHT22;38032;53.326;6.472;2023-04-01T00:22:47;10.90;99.90
52016;DHT22;38032;53.326;6.472;2023-04-01T00:25:13;10.90;99.90
52016;DHT22;38032;53.326;6.472;2023-04-01T00:27:39;10.90;99.90
52016;DHT22;38032;53.326;6.472;2023-04-01T00:30:05;10.90;99.90
52016;DHT22;38032;53.326;6.472;2023-04-01T00:34:57;10.90;99.90
52016;DHT22;38032;53.326;6.472;2023-04-01T00:37:26;10.90;99.90
52016;DHT22;38032;53.326;6.472;2023-04-01T00:39:52;10.90;99.90
52016;DHT22;38032;53.326;6.472;2023-04-01T00:42:18;10.90;99.90
52016;DHT22;38032;53.326;6.472;2023-04-01T00:44:51;10.90;99.90
52016;DHT22;38032;53.326;6.472;2023-04-01T00:47:18;10.90;99.90
52016;DHT22;38032;53.326;6.472;2023-04-01T00:49:46;10.90;99.90
52016;DHT22;38032;53.326;6.472;2023-04-01T00:52:17;10.90;99.90
52016;DHT22;38032;53.326;6.472;2023-04-01T00:54:47;11.00;99.90
52016;DHT22;38032;53.326;6.472;2023-04-01T00:57:18;11.00;99.90
52016;DHT22;38032;53.326;6.472;2023-04-01T00:59:47;10.90;99.90
52016;DHT22;38032;53.326;6.472;2023-04-01T01:02:16;10.90;99.90
52016;DHT22;38032;53.326;6.472;2023-04-01T01:04:42;10.90;99.90
52016;DHT22;38032;53.326;6.472;2023-04-01T01:12:46;10.90;99.90
52016;DHT22;38032;53.326;6.472;2023-04-01T01:15:38;10.90;99.90
52016;DHT22;38032;53.326;6.472;2023-04-01T01:18:09;10.90;99.90
52016;DHT22;38032;53.326;6.472;2023-04-01T01:21:03;10.90;99.90
52016;DHT22;38032;53.326;6.472;2023-04-01T01:23:49;10.90;99.90
52016;DHT22;38032;53.326;6.472;2023-04-01T01:26:41;10.80;99.90
52016;DHT22;38032;53.326;6.472;2023-04-01T01:31:55;10.80;99.90
52016;DHT22;38032;53.326;6.472;2023-04-01T01:37:01;10.80;99.90
52016;DHT22;38032;53.326;6.472;2023-04-01T01:39:31;10.80;99.90
52016;DHT22;38032;53.326;6.472;2023-04-01T01:42:03;10.80;99.90
52016;DHT22;38032;53.326;6.472;2023-04-01T01:44:30;10.80;99.90
52016;DHT22;38032;53.326;6.472;2023-04-01T01:46:58;10.80;99.90
52016;DHT22;38032;53.326;6.472;2023-04-01T01:49:27;10.80;99.90
52016;DHT22;38032;53.326;6.472;2023-04-01T01:51:56;10.80;99.90
52016;DHT22;38032;53.326;6.472;2023-04-01T01:54:22;10.70;99.90
52016;DHT22;38032;53.326;6.472;2023-04-01T01:56:51;10.80;99.90
52016;DHT22;38032;53.326;6.472;2023-04-01T01:59:20;10.80;99.90
52016;DHT22;38032;53.326;6.472;2023-04-01T02:01:49;10.70;99.90
52016;DHT22;38032;53.326;6.472;2023-04-01T02:04:17;10.70;99.90
52016;DHT22;38032;53.326;6.472;2023-04-01T02:06:56;10.70;99.90
52016;DHT22;38032;53.326;6.472;2023-04-01T02:09:24;10.70;99.90
52016;DHT22;38032;53.326;6.472;2023-04-01T02:11:52;10.70;99.90
52016;DHT22;38032;53.326;6.472;2023-04-01T02:14:29;10.70;99.90
52016;DHT22;38032;53.326;6.472;2023-04-01T02:17:09;10.70;99.90
52016;DHT22;38032;53.326;6.472;2023-04-01T02:19:41;10.70;99.90
52016;DHT22;38032;53.326;6.472;2023-04-01T02:22:13;10.70;99.90
52016;DHT22;38032;53.326;6.472;2023-04-01T02:24:40;10.70;99.90
52016;DHT22;38032;53.326;6.472;2023-04-01T02:27:09;10.70;99.90
52016;DHT22;38032;53.326;6.472;2023-04-01T02:29:35;10.70;99.90
52016;DHT22;38032;53.326;6.472;2023-04-01T02:32:02;10.70;99.90
52016;DHT22;38032;53.326;6.472;2023-04-01T02:34:29;10.70;99.90
52016;DHT22;38032;53.326;6.472;2023-04-01T02:36:55;10.70;99.90
52016;DHT22;38032;53.326;6.472;2023-04-01T02:39:22;10.70;99.90
52016;DHT22;38032;53.326;6.472;2023-04-01T02:41:48;10.60;99.90
52016;DHT22;38032;53.326;6.472;2023-04-01T02:44:15;10.60;99.90
52016;DHT22;38032;53.326;6.472;2023-04-01T02:46:41;10.60;99.90
52016;DHT22;38032;53.326;6.472;2023-04-01T02:49:07;10.60;99.90
52016;DHT22;38032;53.326;6.472;2023-04-01T02:51:33;10.60;99.90
52016;DHT22;38032;53.326;6.472;2023-04-01T02:53:59;10.60;99.90
52016;DHT22;38032;53.326;6.472;2023-04-01T02:56:26;10.60;99.90
52016;DHT22;38032;53.326;6.472;2023-04-01T02:58:53;10.50;99.90
52016;DHT22;38032;53.326;6.472;2023-04-01T03:01:19;10.60;99.90
52016;DHT22;38032;53.326;6.472;2023-04-01T03:03:45;10.50;99.90
52016;DHT22;38032;53.326;6.472;2023-04-01T03:06:13;10.50;99.90
52016;DHT22;38032;53.326;6.472;2023-04-01T03:08:40;10.50;99.90
52016;DHT22;38032;53.326;6.472;2023-04-01T03:11:06;10.50;99.90
52016;DHT22;38032;53.326;6.472;2023-04-01T03:13:32;10.50;99.90
52016;DHT22;38032;53.326;6.472;2023-04-01T03:15:58;10.50;99.90
52016;DHT22;38032;53.326;6.472;2023-04-01T03:18:24;10.50;99.90
52016;DHT22;38032;53.326;6.472;2023-04-01T03:20:50;10.50;99.90
52016;DHT22;38032;53.326;6.472;2023-04-01T03:23:16;10.50;99.90
52016;DHT22;38032;53.326;6.472;2023-04-01T03:25:45;10.50;99.90
52016;DHT22;38032;53.326;6.472;2023-04-01T03:28:11;10.50;99.90
52016;DHT22;38032;53.326;6.472;2023-04-01T03:30:38;10.50;99.90
52016;DHT22;38032;53.326;6.472;2023-04-01T03:33:04;10.50;99.90
52016;DHT22;38032;53.326;6.472;2023-04-01T03:35:29;10.40;99.90
52016;DHT22;38032;53.326;6.472;2023-04-01T03:37:56;10.50;99.90
52016;DHT22;38032;53.326;6.472;2023-04-01T03:40:22;10.40;99.90
52016;DHT22;38032;53.326;6.472;2023-04-01T03:42:48;10.40;99.90
52016;DHT22;38032;53.326;6.472;2023-04-01T03:45:14;10.40;99.90
52016;DHT22;38032;53.326;6.472;2023-04-01T03:47:40;10.40;99.90
52016;DHT22;38032;53.326;6.472;2023-04-01T03:50:07;10.40;99.90
52016;DHT22;38032;53.326;6.472;2023-04-01T03:52:33;10.40;99.90
52016;DHT22;38032;53.326;6.472;2023-04-01T03:55:01;10.40;99.90
52016;DHT22;38032;53.326;6.472;2023-04-01T03:57:27;10.40;99.90
52016;DHT22;38032;53.326;6.472;2023-04-01T03:59:53;10.40;99.90
52016;DHT22;38032;53.326;6.472;2023-04-01T04:02:19;10.40;99.90
52016;DHT22;38032;53.326;6.472;2023-04-01T04:04:45;10.40;99.90
52016;DHT22;38032;53.326;6.472;2023-04-01T04:07:12;10.40;99.90
52016;DHT22;38032;53.326;6.472;2023-04-01T04:09:38;10.40;99.90
52016;DHT22;38032;53.326;6.472;2023-04-01T04:12:04;10.40;99.90
52016;DHT22;38032;53.326;6.472;2023-04-01T04:14:31;10.40;99.90
52016;DHT22;38032;53.326;6.472;2023-04-01T04:16:57;10.40;99.90
52016;DHT22;38032;53.326;6.472;2023-04-01T04:19:23;10.30;99.90
52016;DHT22;38032;53.326;6.472;2023-04-01T04:21:49;10.30;99.90
52016;DHT22;38032;53.326;6.472;2023-04-01T04:24:15;10.30;99.90
52016;DHT22;38032;53.326;6.472;2023-04-01T04:26:41;10.30;99.90
52016;DHT22;38032;53.326;6.472;2023-04-01T04:29:07;10.30;99.90
52016;DHT22;38032;53.326;6.472;2023-04-01T04:31:33;10.30;99.90
52016;DHT22;38032;53.326;6.472;2023-04-01T04:34:00;10.30;99.90
52016;DHT22;38032;53.326;6.472;2023-04-01T04:36:27;10.30;99.90
52016;DHT22;38032;53.326;6.472;2023-04-01T04:38:53;10.30;99.90
52016;DHT22;38032;53.326;6.472;2023-04-01T04:41:19;10.30;99.90
52016;DHT22;38032;53.326;6.472;2023-04-01T04:43:50;10.30;99.90
52016;DHT22;38032;53.326;6.472;2023-04-01T04:46:17;10.30;99.90
52016;DHT22;38032;53.326;6.472;2023-04-01T04:48:43;10.30;99.90
52016;DHT22;38032;53.326;6.472;2023-04-01T04:51:13;10.30;99.90
52016;DHT22;38032;53.326;6.472;2023-04-01T04:53:40;10.30;99.90
52016;DHT22;38032;53.326;6.472;2023-04-01T04:56:06;10.30;99.90
52016;DHT22;38032;53.326;6.472;2023-04-01T04:58:32;10.30;99.90
52016;DHT22;38032;53.326;6.472;2023-04-01T05:00:58;10.30;99.90
52016;DHT22;38032;53.326;6.472;2023-04-01T05:03:24;10.30;99.90
52016;DHT22;38032;53.326;6.472;2023-04-01T05:05:51;10.30;99.90
52016;DHT22;38032;53.326;6.472;2023-04-01T05:08:18;10.30;99.90
52016;DHT22;38032;53.326;6.472;2023-04-01T05:10:43;10.30;99.90
52016;DHT22;38032;53.326;6.472;2023-04-01T05:13:10;10.30;99.90
52016;DHT22;38032;53.326;6.472;2023-04-01T05:15:36;10.30;99.90
52016;DHT22;38032;53.326;6.472;2023-04-01T05:18:03;10.30;99.90
52016;DHT22;38032;53.326;6.472;2023-04-01T05:20:29;10.30;99.90
52016;DHT22;38032;53.326;6.472;2023-04-01T05:22:57;10.30;99.90
52016;DHT22;38032;53.326;6.472;2023-04-01T05:25:23;10.30;99.90
52016;DHT22;38032;53.326;6.472;2023-04-01T05:27:49;10.30;99.90
52016;DHT22;38032;53.326;6.472;2023-04-01T05:30:15;10.30;99.90
52016;DHT22;38032;53.326;6.472;2023-04-01T05:32:41;10.30;99.90
52016;DHT22;38032;53.326;6.472;2023-04-01T05:35:07;10.30;99.90
52016;DHT22;38032;53.326;6.472;2023-04-01T05:37:34;10.30;99.90
52016;DHT22;38032;53.326;6.472;2023-04-01T05:40:01;10.30;99.90
52016;DHT22;38032;53.326;6.472;2023-04-01T05:42:27;10.30;99.90
52016;DHT22;38032;53.326;6.472;2023-04-01T05:44:52;10.30;99.90
52016;DHT22;38032;53.326;6.472;2023-04-01T05:47:18;10.30;99.90
52016;DHT22;38032;53.326;6.472;2023-04-01T05:49:44;10.30;99.90
52016;DHT22;38032;53.326;6.472;2023-04-01T05:52:10;10.40;99.90
52016;DHT22;38032;53.326;6.472;2023-04-01T05:54:36;10.30;99.90
52016;DHT22;38032;53.326;6.472;2023-04-01T05:57:02;10.30;99.90
52016;DHT22;38032;53.326;6.472;2023-04-01T05:59:28;10.40;99.90
52016;DHT22;38032;53.326;6.472;2023-04-01T06:01:57;10.40;99.90
52016;DHT22;38032;53.326;6.472;2023-04-01T06:04:23;10.40;99.90
52016;DHT22;38032;53.326;6.472;2023-04-01T06:06:49;10.40;99.90
52016;DHT22;38032;53.326;6.472;2023-04-01T06:09:19;10.40;99.90
52016;DHT22;38032;53.326;6.472;2023-04-01T06:12:15;10.40;99.90
52016;DHT22;38032;53.326;6.472;2023-04-01T06:20:37;10.50;99.90
52016;DHT22;38032;53.326;6.472;2023-04-01T06:25:54;10.60;99.90
52016;DHT22;38032;53.326;6.472;2023-04-01T06:31:25;10.70;99.90
52016;DHT22;38032;53.326;6.472;2023-04-01T06:34:06;10.70;99.90
52016;DHT22;38032;53.326;6.472;2023-04-01T06:41:53;10.80;99.90
52016;DHT22;38032;53.326;6.472;2023-04-01T06:44:35;10.80;99.90
52016;DHT22;38032;53.326;6.472;2023-04-01T06:50:02;10.90;99.90
52016;DHT22;38032;53.326;6.472;2023-04-01T06:55:24;10.90;99.90
52016;DHT22;38032;53.326;6.472;2023-04-01T06:57:55;11.00;99.90
52016;DHT22;38032;53.326;6.472;2023-04-01T07:00:30;11.10;99.90
52016;DHT22;38032;53.326;6.472;2023-04-01T07:03:16;11.10;99.90
52016;DHT22;38032;53.326;6.472;2023-04-01T07:05:45;11.10;99.90
52016;DHT22;38032;53.326;6.472;2023-04-01T07:08:18;11.10;99.90
52016;DHT22;38032;53.326;6.472;2023-04-01T07:13:20;11.20;99.90
52016;DHT22;38032;53.326;6.472;2023-04-01T07:15:58;11.30;99.90
52016;DHT22;38032;53.326;6.472;2023-04-01T07:18:32;11.30;99.90
52016;DHT22;38032;53.326;6.472;2023-04-01T07:21:01;11.30;99.90
52016;DHT22;38032;53.326;6.472;2023-04-01T07:23:32;11.20;99.90
52016;DHT22;38032;53.326;6.472;2023-04-01T07:26:17;11.30;99.90
52016;DHT22;38032;53.326;6.472;2023-04-01T07:28:43;11.30;99.90
52016;DHT22;38032;53.326;6.472;2023-04-01T07:31:15;11.30;99.90
52016;DHT22;38032;53.326;6.472;2023-04-01T07:36:38;11.30;99.90
52016;DHT22;38032;53.326;6.472;2023-04-01T07:42:02;11.30;99.90
52016;DHT22;38032;53.326;6.472;2023-04-01T07:44:44;11.20;99.90
52016;DHT22;38032;53.326;6.472;2023-04-01T07:47:38;11.10;99.90
52016;DHT22;38032;53.326;6.472;2023-04-01T07:50:30;11.00;99.90
52016;DHT22;38032;53.326;6.472;2023-04-01T07:53:15;10.90;99.90
52016;DHT22;38032;53.326;6.472;2023-04-01T07:55:50;10.80;99.90
52016;DHT22;38032;53.326;6.472;2023-04-01T07:58:39;10.80;99.90
52016;DHT22;38032;53.326;6.472;2023-04-01T08:01:27;10.80;99.90
52016;DHT22;38032;53.326;6.472;2023-04-01T08:06:44;10.70;99.90
52016;DHT22;38032;53.326;6.472;2023-04-01T08:09:19;10.70;99.90
52016;DHT22;38032;53.326;6.472;2023-04-01T08:12:06;10.60;99.90
52016;DHT22;38032;53.326;6.472;2023-04-01T08:14:48;10.60;99.90
52016;DHT22;38032;53.326;6.472;2023-04-01T08:17:36;10.60;99.90
52016;DHT22;38032;53.326;6.472;2023-04-01T08:20:14;10.70;99.90
52016;DHT22;38032;53.326;6.472;2023-04-01T08:22:45;10.60;99.90
52016;DHT22;38032;53.326;6.472;2023-04-01T08:25:20;10.60;99.90
52016;DHT22;38032;53.326;6.472;2023-04-01T08:27:51;10.50;99.90
52016;DHT22;38032;53.326;6.472;2023-04-01T08:30:23;10.50;99.90
52016;DHT22;38032;53.326;6.472;2023-04-01T08:35:59;10.40;99.90
52016;DHT22;38032;53.326;6.472;2023-04-01T08:38:32;10.50;99.90
52016;DHT22;38032;53.326;6.472;2023-04-01T08:41:10;10.70;99.90
52016;DHT22;38032;53.326;6.472;2023-04-01T08:44:04;10.80;99.90
52016;DHT22;38032;53.326;6.472;2023-04-01T08:49:15;10.70;99.90
52016;DHT22;38032;53.326;6.472;2023-04-01T08:51:54;10.80;99.90
52016;DHT22;38032;53.326;6.472;2023-04-01T09:00:04;10.60;99.90
52016;DHT22;38032;53.326;6.472;2023-04-01T09:02:57;10.70;99.90
52016;DHT22;38032;53.326;6.472;2023-04-01T09:05:56;10.70;99.90
52016;DHT22;38032;53.326;6.472;2023-04-01T09:11:17;10.80;99.90
52016;DHT22;38032;53.326;6.472;2023-04-01T09:16:44;10.60;99.90
52016;DHT22;38032;53.326;6.472;2023-04-01T09:22:04;10.60;99.90
52016;DHT22;38032;53.326;6.472;2023-04-01T09:24:52;10.70;99.90
52016;DHT22;38032;53.326;6.472;2023-04-01T09:27:28;10.60;99.90
52016;DHT22;38032;53.326;6.472;2023-04-01T09:30:13;10.60;99.90
52016;DHT22;38032;53.326;6.472;2023-04-01T09:33:08;10.50;99.90
52016;DHT22;38032;53.326;6.472;2023-04-01T09:35:47;10.40;99.90
52016;DHT22;38032;53.326;6.472;2023-04-01T09:38:23;10.30;99.90
52016;DHT22;38032;53.326;6.472;2023-04-01T09:41:07;10.20;99.90
52016;DHT22;38032;53.326;6.472;2023-04-01T09:44:00;10.20;99.90
52016;DHT22;38032;53.326;6.472;2023-04-01T09:52:16;10.00;99.90
52016;DHT22;38032;53.326;6.472;2023-04-01T09:54:55;9.90;99.90
52016;DHT22;38032;53.326;6.472;2023-04-01T09:57:33;9.90;99.90
52016;DHT22;38032;53.326;6.472;2023-04-01T10:00:15;9.90;99.90
52016;DHT22;38032;53.326;6.472;2023-04-01T10:03:13;9.80;99.90
52016;DHT22;38032;53.326;6.472;2023-04-01T10:08:44;9.80;99.90
52016;DHT22;38032;53.326;6.472;2023-04-01T10:11:51;9.90;99.90
52016;DHT22;38032;53.326;6.472;2023-04-01T10:17:09;9.90;99.90
52016;DHT22;38032;53.326;6.472;2023-04-01T10:25:55;10.10;99.90
52016;DHT22;38032;53.326;6.472;2023-04-01T10:28:41;10.10;99.90
52016;DHT22;38032;53.326;6.472;2023-04-01T10:31:33;10.10;99.90
52016;DHT22;38032;53.326;6.472;2023-04-01T10:34:24;10.10;99.90
52016;DHT22;38032;53.326;6.472;2023-04-01T10:36:57;10.10;99.90
52016;DHT22;38032;53.326;6.472;2023-04-01T10:42:39;9.90;99.90
52016;DHT22;38032;53.326;6.472;2023-04-01T10:48:10;10.10;99.90
52016;DHT22;38032;53.326;6.472;2023-04-01T10:53:34;10.10;99.90
52016;DHT22;38032;53.326;6.472;2023-04-01T11:13:33;10.00;99.90
52016;DHT22;38032;53.326;6.472;2023-04-01T11:16:23;10.10;99.90
52016;DHT22;38032;53.326;6.472;2023-04-01T11:25:16;10.20;99.90
52016;DHT22;38032;53.326;6.472;2023-04-01T11:28:07;10.10;99.90
52016;DHT22;38032;53.326;6.472;2023-04-01T11:35:53;10.20;99.90
52016;DHT22;38032;53.326;6.472;2023-04-01T11:38:35;10.20;99.90
52016;DHT22;38032;53.326;6.472;2023-04-01T11:41:30;10.20;99.90
52016;DHT22;38032;53.326;6.472;2023-04-01T11:44:15;10.30;99.90
52016;DHT22;38032;53.326;6.472;2023-04-01T11:47:00;10.40;99.90
52016;DHT22;38032;53.326;6.472;2023-04-01T11:49:41;10.50;99.90
52016;DHT22;38032;53.326;6.472;2023-04-01T11:57:59;10.30;99.90
52016;DHT22;38032;53.326;6.472;2023-04-01T12:00:51;10.30;99.90
52016;DHT22;38032;53.326;6.472;2023-04-01T12:06:14;10.30;99.90
52016;DHT22;38032;53.326;6.472;2023-04-01T12:08:55;10.30;99.90
52016;DHT22;38032;53.326;6.472;2023-04-01T12:14:21;10.40;99.90
52016;DHT22;38032;53.326;6.472;2023-04-01T12:17:01;10.30;99.90
52016;DHT22;38032;53.326;6.472;2023-04-01T12:25:19;10.40;99.90
52016;DHT22;38032;53.326;6.472;2023-04-01T12:33:29;10.50;99.90
52016;DHT22;38032;53.326;6.472;2023-04-01T12:44:59;10.30;99.90
52016;DHT22;38032;53.326;6.472;2023-04-01T12:48:01;10.30;99.90
52016;DHT22;38032;53.326;6.472;2023-04-01T12:56:17;10.30;99.90
52016;DHT22;38032;53.326;6.472;2023-04-01T13:07:22;10.10;99.90
52016;DHT22;38032;53.326;6.472;2023-04-01T13:10:01;10.10;99.90
52016;DHT22;38032;53.326;6.472;2023-04-01T13:13:01;10.10;99.90
52016;DHT22;38032;53.326;6.472;2023-04-01T13:15:42;10.00;99.90
52016;DHT22;38032;53.326;6.472;2023-04-01T13:18:21;9.90;99.90
52016;DHT22;38032;53.326;6.472;2023-04-01T13:23:40;9.80;99.90
52016;DHT22;38032;53.326;6.472;2023-04-01T13:26:26;9.70;99.90
52016;DHT22;38032;53.326;6.472;2023-04-01T13:28:56;9.80;99.90
52016;DHT22;38032;53.326;6.472;2023-04-01T13:31:51;9.70;99.90
52016;DHT22;38032;53.326;6.472;2023-04-01T13:37:19;9.70;99.90
52016;DHT22;38032;53.326;6.472;2023-04-01T13:39:55;9.60;99.90
52016;DHT22;38032;53.326;6.472;2023-04-01T13:42:43;9.60;99.90
52016;DHT22;38032;53.326;6.472;2023-04-01T13:45:24;9.50;99.90
52016;DHT22;38032;53.326;6.472;2023-04-01T13:48:19;9.50;99.90
52016;DHT22;38032;53.326;6.472;2023-04-01T13:51:13;9.40;99.90
52016;DHT22;38032;53.326;6.472;2023-04-01T13:54:07;9.40;99.90
52016;DHT22;38032;53.326;6.472;2023-04-01T14:01:50;9.40;99.90
52016;DHT22;38032;53.326;6.472;2023-04-01T14:06:58;9.30;99.90
52016;DHT22;38032;53.326;6.472;2023-04-01T14:12:05;9.20;99.90
52016;DHT22;38032;53.326;6.472;2023-04-01T14:15:10;9.20;99.90
52016;DHT22;38032;53.326;6.472;2023-04-01T14:18:07;9.20;99.90
52016;DHT22;38032;53.326;6.472;2023-04-01T14:20:46;9.20;99.90
52016;DHT22;38032;53.326;6.472;2023-04-01T14:23:42;9.20;99.90
52016;DHT22;38032;53.326;6.472;2023-04-01T14:34:27;9.00;99.90
52016;DHT22;38032;53.326;6.472;2023-04-01T14:37:13;8.90;99.90
52016;DHT22;38032;53.326;6.472;2023-04-01T14:45:24;8.80;99.90
52016;DHT22;38032;53.326;6.472;2023-04-01T14:48:05;8.70;99.90
52016;DHT22;38032;53.326;6.472;2023-04-01T14:50:44;8.60;99.90
52016;DHT22;38032;53.326;6.472;2023-04-01T14:53:22;8.60;99.90
52016;DHT22;38032;53.326;6.472;2023-04-01T14:55:52;8.60;99.90
52016;DHT22;38032;53.326;6.472;2023-04-01T14:58:20;8.50;99.90
52016;DHT22;38032;53.326;6.472;2023-04-01T15:03:57;8.50;99.90
52016;DHT22;38032;53.326;6.472;2023-04-01T15:08:58;8.40;99.90
52016;DHT22;38032;53.326;6.472;2023-04-01T15:11:51;8.40;99.90
52016;DHT22;38032;53.326;6.472;2023-04-01T15:14:25;8.40;99.90
52016;DHT22;38032;53.326;6.472;2023-04-01T15:17:15;8.30;99.90
52016;DHT22;38032;53.326;6.472;2023-04-01T15:20:10;8.30;99.90
52016;DHT22;38032;53.326;6.472;2023-04-01T15:23:08;8.40;99.90
52016;DHT22;38032;53.326;6.472;2023-04-01T15:28:25;8.20;99.90
52016;DHT22;38032;53.326;6.472;2023-04-01T15:31:18;8.10;99.90
52016;DHT22;38032;53.326;6.472;2023-04-01T15:39:04;7.90;99.90
52016;DHT22;38032;53.326;6.472;2023-04-01T15:42:01;7.80;99.90
52016;DHT22;38032;53.326;6.472;2023-04-01T15:47:27;7.70;99.90
52016;DHT22;38032;53.326;6.472;2023-04-01T15:55:25;7.60;99.90
52016;DHT22;38032;53.326;6.472;2023-04-01T15:58:18;7.60;99.90
52016;DHT22;38032;53.326;6.472;2023-04-01T16:00:57;7.60;99.90
52016;DHT22;38032;53.326;6.472;2023-04-01T16:09:32;7.60;99.90
52016;DHT22;38032;53.326;6.472;2023-04-01T16:12:12;7.60;99.90
52016;DHT22;38032;53.326;6.472;2023-04-01T16:14:55;7.60;99.90
52016;DHT22;38032;53.326;6.472;2023-04-01T16:17:35;7.50;99.90
52016;DHT22;38032;53.326;6.472;2023-04-01T16:22:54;7.50;99.90
52016;DHT22;38032;53.326;6.472;2023-04-01T16:25:33;7.50;99.90
52016;DHT22;38032;53.326;6.472;2023-04-01T16:30:58;7.40;99.90
52016;DHT22;38032;53.326;6.472;2023-04-01T16:36:13;7.30;99.90
52016;DHT22;38032;53.326;6.472;2023-04-01T16:39:08;7.30;99.90
52016;DHT22;38032;53.326;6.472;2023-04-01T16:41:47;7.30;99.90
52016;DHT22;38032;53.326;6.472;2023-04-01T16:44:22;7.30;99.90
52016;DHT22;38032;53.326;6.472;2023-04-01T16:46:57;7.20;99.90
52016;DHT22;38032;53.326;6.472;2023-04-01T16:49:30;7.20;99.90
52016;DHT22;38032;53.326;6.472;2023-04-01T16:52:12;7.20;99.90
52016;DHT22;38032;53.326;6.472;2023-04-01T16:54:47;7.20;99.90
52016;DHT22;38032;53.326;6.472;2023-04-01T16:57:25;7.20;99.90
52016;DHT22;38032;53.326;6.472;2023-04-01T17:02:26;7.20;99.90
52016;DHT22;38032;53.326;6.472;2023-04-01T17:05:08;7.10;99.90
52016;DHT22;38032;53.326;6.472;2023-04-01T17:10:19;7.00;99.90
52016;DHT22;38032;53.326;6.472;2023-04-01T17:19:09;7.00;99.90
52016;DHT22;38032;53.326;6.472;2023-04-01T17:24:47;6.90;99.90
52016;DHT22;38032;53.326;6.472;2023-04-01T17:27:26;6.80;99.90
52016;DHT22;38032;53.326;6.472;2023-04-01T17:32:47;6.70;99.90
52016;DHT22;38032;53.326;6.472;2023-04-01T17:35:19;6.70;99.90
52016;DHT22;38032;53.326;6.472;2023-04-01T17:37:59;6.60;99.90
52016;DHT22;38032;53.326;6.472;2023-04-01T17:40:57;6.60;99.90
52016;DHT22;38032;53.326;6.472;2023-04-01T17:43:37;6.60;99.90
52016;DHT22;38032;53.326;6.472;2023-04-01T17:46:28;6.60;99.90
52016;DHT22;38032;53.326;6.472;2023-04-01T17:54:59;6.50;99.90
52016;DHT22;38032;53.326;6.472;2023-04-01T17:57:30;6.50;99.90
52016;DHT22;38032;53.326;6.472;2023-04-01T18:00:26;6.50;99.90
52016;DHT22;38032;53.326;6.472;2023-04-01T18:03:11;6.50;99.90
52016;DHT22;38032;53.326;6.472;2023-04-01T18:11:16;6.60;99.90
52016;DHT22;38032;53.326;6.472;2023-04-01T18:19:18;6.50;99.90
52016;DHT22;38032;53.326;6.472;2023-04-01T18:21:55;6.50;99.90
52016;DHT22;38032;53.326;6.472;2023-04-01T18:24:33;6.50;99.90
52016;DHT22;38032;53.326;6.472;2023-04-01T18:27:04;6.50;99.90
52016;DHT22;38032;53.326;6.472;2023-04-01T18:29:49;6.40;99.90
52016;DHT22;38032;53.326;6.472;2023-04-01T18:32:26;6.40;99.90
52016;DHT22;38032;53.326;6.472;2023-04-01T18:37:51;6.50;99.90
52016;DHT22;38032;53.326;6.472;2023-04-01T18:40:32;6.40;99.90
52016;DHT22;38032;53.326;6.472;2023-04-01T18:45:36;6.40;99.90
52016;DHT22;38032;53.326;6.472;2023-04-01T18:48:40;6.30;99.90
52016;DHT22;38032;53.326;6.472;2023-04-01T18:51:17;6.20;99.90
52016;DHT22;38032;53.326;6.472;2023-04-01T18:53:58;6.40;99.90
52016;DHT22;38032;53.326;6.472;2023-04-01T18:56:37;6.30;99.90
52016;DHT22;38032;53.326;6.472;2023-04-01T18:59:09;6.30;99.90
52016;DHT22;38032;53.326;6.472;2023-04-01T19:01:52;6.20;99.90
52016;DHT22;38032;53.326;6.472;2023-04-01T19:04:37;6.20;99.90
52016;DHT22;38032;53.326;6.472;2023-04-01T19:21:14;6.20;99.90
52016;DHT22;38032;53.326;6.472;2023-04-01T19:23:53;6.20;99.90
52016;DHT22;38032;53.326;6.472;2023-04-01T19:26:40;6.10;99.90
52016;DHT22;38032;53.326;6.472;2023-04-01T19:29:23;6.10;99.90
52016;DHT22;38032;53.326;6.472;2023-04-01T19:31:59;6.10;99.90
52016;DHT22;38032;53.326;6.472;2023-04-01T19:34:45;6.10;99.90
52016;DHT22;38032;53.326;6.472;2023-04-01T19:37:27;6.00;99.90
52016;DHT22;38032;53.326;6.472;2023-04-01T19:42:54;6.00;99.90
52016;DHT22;38032;53.326;6.472;2023-04-01T19:48:30;6.00;99.90
52016;DHT22;38032;53.326;6.472;2023-04-01T19:51:09;6.00;99.90
52016;DHT22;38032;53.326;6.472;2023-04-01T19:53:43;5.90;99.90
52016;DHT22;38032;53.326;6.472;2023-04-01T19:58:54;5.90;99.90
52016;DHT22;38032;53.326;6.472;2023-04-01T20:01:35;5.90;99.90
52016;DHT22;38032;53.326;6.472;2023-04-01T20:04:12;5.90;99.90
52016;DHT22;38032;53.326;6.472;2023-04-01T20:06:55;6.00;99.90
52016;DHT22;38032;53.326;6.472;2023-04-01T20:12:05;5.90;99.90
52016;DHT22;38032;53.326;6.472;2023-04-01T20:14:47;5.70;99.90
52016;DHT22;38032;53.326;6.472;2023-04-01T20:17:38;5.80;99.90
52016;DHT22;38032;53.326;6.472;2023-04-01T20:22:53;5.80;99.90
52016;DHT22;38032;53.326;6.472;2023-04-01T20:36:13;5.80;99.90
52016;DHT22;38032;53.326;6.472;2023-04-01T20:39:04;5.90;99.90
52016;DHT22;38032;53.326;6.472;2023-04-01T20:41:49;5.70;99.90
52016;DHT22;38032;53.326;6.472;2023-04-01T20:44:31;5.80;99.90
52016;DHT22;38032;53.326;6.472;2023-04-01T20:49:39;5.70;99.90
52016;DHT22;38032;53.326;6.472;2023-04-01T20:57:43;5.60;99.90
52016;DHT22;38032;53.326;6.472;2023-04-01T21:00:35;5.60;99.90
52016;DHT22;38032;53.326;6.472;2023-04-01T21:03:18;5.60;99.90
52016;DHT22;38032;53.326;6.472;2023-04-01T21:05:54;5.60;99.90
52016;DHT22;38032;53.326;6.472;2023-04-01T21:08:32;5.60;99.90
52016;DHT22;38032;53.326;6.472;2023-04-01T21:11:14;5.50;99.90
52016;DHT22;38032;53.326;6.472;2023-04-01T21:16:39;5.50;99.90
52016;DHT22;38032;53.326;6.472;2023-04-01T21:22:17;5.50;99.90
52016;DHT22;38032;53.326;6.472;2023-04-01T21:25:31;5.40;99.90
52016;DHT22;38032;53.326;6.472;2023-04-01T21:31:04;5.40;99.90
52016;DHT22;38032;53.326;6.472;2023-04-01T21:33:49;5.40;99.90
52016;DHT22;38032;53.326;6.472;2023-04-01T21:36:43;5.40;99.90
52016;DHT22;38032;53.326;6.472;2023-04-01T21:42:03;5.40;99.90
52016;DHT22;38032;53.326;6.472;2023-04-01T21:44:58;5.40;99.90
52016;DHT22;38032;53.326;6.472;2023-04-01T21:47:45;5.40;99.90
52016;DHT22;38032;53.326;6.472;2023-04-01T22:04:57;5.30;99.90
52016;DHT22;38032;53.326;6.472;2023-04-01T22:07:33;5.20;99.90
52016;DHT22;38032;53.326;6.472;2023-04-01T22:10:10;5.20;99.90
52016;DHT22;38032;53.326;6.472;2023-04-01T22:12:46;5.30;99.90
52016;DHT22;38032;53.326;6.472;2023-04-01T22:15:28;5.20;99.90